createdAt,value
2022-08-11T00:00:53.296Z,50.910614
2022-08-11T00:01:53.281Z,50.910660
2022-08-11T00:02:53.291Z,50.910702
2022-08-11T00:03:53.262Z,50.910679
2022-08-11T00:04:53.268Z,50.910633
2022-08-11T00:05:53.267Z,50.910694
2022-08-11T00:06:53.237Z,50.910580
2022-08-11T00:07:53.223Z,50.910618
2022-08-11T00:08:53.266Z,50.910671
2022-08-11T00:09:53.247Z,50.910725
2022-08-11T00:10:53.199Z,50.910622
2022-08-11T00:11:53.190Z,50.910583
2022-08-11T00:12:54.178Z,50.910721
2022-08-11T00:13:53.169Z,50.910706
2022-08-11T00:14:53.176Z,50.910721
2022-08-11T00:15:53.148Z,50.910744
2022-08-11T00:16:53.137Z,50.910789
2022-08-11T00:17:53.130Z,50.910606
2022-08-11T00:18:53.123Z,50.910561
2022-08-11T00:20:12.402Z,50.910683
2022-08-11T00:20:54.104Z,50.910721
2022-08-11T00:22:04.912Z,50.910835
2022-08-11T00:22:54.086Z,50.910690
2022-08-11T00:23:53.073Z,50.910503
2022-08-11T00:24:57.225Z,50.910629
2022-08-11T00:25:54.051Z,50.910641
2022-08-11T00:26:53.043Z,50.911366
2022-08-11T00:27:53.031Z,50.910625
2022-08-11T00:28:53.020Z,50.910728
2022-08-11T00:29:53.028Z,50.910648
2022-08-11T00:30:53.010Z,50.910435
2022-08-11T00:31:52.991Z,50.910538
2022-08-11T00:32:52.991Z,50.910419
2022-08-11T00:33:52.973Z,50.910667
2022-08-11T00:34:52.984Z,50.910618
2022-08-11T00:35:57.669Z,50.910473
2022-08-11T00:36:52.949Z,50.910648
2022-08-11T00:37:52.935Z,50.910770
2022-08-11T00:38:52.947Z,50.910843
2022-08-11T00:39:53.034Z,50.910820
2022-08-11T00:40:52.927Z,50.910736
2022-08-11T00:41:56.776Z,50.910564
2022-08-11T00:42:52.887Z,50.910633
2022-08-11T00:43:52.879Z,50.910625
2022-08-11T00:44:52.867Z,50.910580
2022-08-11T00:45:52.901Z,50.910522
2022-08-11T00:46:52.857Z,50.910660
2022-08-11T00:47:52.842Z,50.910725
2022-08-11T00:48:52.835Z,50.910748
2022-08-11T00:49:52.822Z,50.910770
2022-08-11T00:50:52.831Z,50.910732
2022-08-11T00:52:02.029Z,50.910778
2022-08-11T00:52:53.797Z,50.910748
2022-08-11T00:53:52.785Z,50.910759
2022-08-11T00:54:52.775Z,50.910828
2022-08-11T00:55:55.469Z,50.910717
2022-08-11T00:56:52.761Z,50.910774
2022-08-11T00:57:52.745Z,50.910797
2022-08-11T00:58:52.741Z,50.910725
2022-08-11T00:59:52.725Z,50.910778
2022-08-11T01:00:52.759Z,50.910858
2022-08-11T01:01:52.702Z,50.910847
2022-08-11T01:02:52.701Z,50.910805
2022-08-11T01:03:52.688Z,50.910763
2022-08-11T01:04:55.745Z,50.910702
2022-08-11T01:05:52.681Z,50.910698
2022-08-11T01:06:52.662Z,50.910812
2022-08-11T01:08:02.388Z,50.910793
2022-08-11T01:08:53.689Z,50.910664
2022-08-11T01:09:52.628Z,50.910622
2022-08-11T01:10:52.688Z,50.910725
2022-08-11T01:11:55.727Z,50.910694
2022-08-11T01:12:52.603Z,50.910694
2022-08-11T01:13:52.594Z,50.910690
2022-08-11T01:14:52.588Z,50.910686
2022-08-11T01:15:57.019Z,50.910683
2022-08-11T01:16:52.632Z,50.910828
2022-08-11T01:17:52.555Z,50.910774
2022-08-11T01:18:52.544Z,50.910908
2022-08-11T01:20:44.724Z,50.910969
2022-08-11T01:20:53.546Z,50.910862
2022-08-11T01:21:52.522Z,50.910889
2022-08-11T01:22:52.566Z,50.910843
2022-08-11T01:23:52.503Z,50.910538
2022-08-11T01:24:52.485Z,50.910446
2022-08-11T01:25:57.061Z,50.910656
2022-08-11T01:26:53.470Z,50.910728
2022-08-11T01:27:52.463Z,50.910686
2022-08-11T01:28:52.539Z,50.910660
2022-08-11T01:29:52.436Z,50.910698
2022-08-11T01:30:54.293Z,50.910732
2022-08-11T01:31:52.425Z,50.910698
2022-08-11T01:32:52.410Z,50.910709
2022-08-11T01:33:52.404Z,50.910709
2022-08-11T01:34:52.387Z,50.910789
2022-08-11T01:35:52.597Z,50.910751
2022-08-11T01:36:53.585Z,50.910744
2022-08-11T01:37:52.358Z,50.910759
2022-08-11T01:38:52.346Z,50.910851
2022-08-11T01:39:52.424Z,50.910782
2022-08-11T01:40:52.346Z,50.910652
2022-08-11T01:41:52.324Z,50.910595
2022-08-11T01:42:52.312Z,50.910656
2022-08-11T01:43:52.297Z,50.910667
2022-08-11T01:44:52.294Z,50.910717
2022-08-11T01:45:52.379Z,50.910770
2022-08-11T01:46:52.444Z,50.910698
2022-08-11T01:47:53.521Z,50.910675
2022-08-11T01:48:52.252Z,50.910732
2022-08-11T01:50:09.438Z,50.910717
2022-08-11T01:50:53.248Z,50.910786
2022-08-11T01:51:52.225Z,50.910778
2022-08-11T01:52:52.386Z,50.910820
2022-08-11T01:53:52.199Z,50.910816
2022-08-11T01:54:52.191Z,50.910797
2022-08-11T01:55:52.238Z,50.910759
2022-08-11T01:56:52.167Z,50.910721
2022-08-11T01:57:52.165Z,50.910641
2022-08-11T01:58:52.156Z,50.910595
2022-08-11T01:59:52.147Z,50.910534
2022-08-11T02:00:52.192Z,50.910542
2022-08-11T02:01:52.223Z,50.910580
2022-08-11T02:02:52.113Z,50.910679
2022-08-11T02:03:52.107Z,50.910690
2022-08-11T02:04:52.094Z,50.910629
2022-08-11T02:05:52.083Z,50.910717
2022-08-11T02:06:52.090Z,50.910721
2022-08-11T02:07:52.069Z,50.910686
2022-08-11T02:08:52.054Z,50.910664
2022-08-11T02:09:52.045Z,50.910629
2022-08-11T02:10:52.035Z,50.910656
2022-08-11T02:11:52.042Z,50.910763
2022-08-11T02:12:52.412Z,50.910637
2022-08-11T02:13:52.007Z,50.910614
2022-08-11T02:15:04.779Z,50.910694
2022-08-11T02:15:52.993Z,50.910675
2022-08-11T02:16:51.999Z,50.910744
2022-08-11T02:17:54.703Z,50.910686
2022-08-11T02:18:51.963Z,50.910515
2022-08-11T02:19:51.958Z,50.910542
2022-08-11T02:20:51.951Z,50.910618
2022-08-11T02:21:51.946Z,50.910641
2022-08-11T02:22:51.944Z,50.910648
2022-08-11T02:24:07.106Z,50.910583
2022-08-11T02:24:52.900Z,50.910599
2022-08-11T02:25:51.980Z,50.910606
2022-08-11T02:26:51.901Z,50.910606
2022-08-11T02:27:51.878Z,50.910641
2022-08-11T02:28:51.862Z,50.910625
2022-08-11T02:29:51.862Z,50.910637
2022-08-11T02:30:51.862Z,50.910736
2022-08-11T02:32:24.373Z,50.910732
2022-08-11T02:32:53.030Z,50.910618
2022-08-11T02:33:51.821Z,50.910591
2022-08-11T02:34:59.411Z,50.910641
2022-08-11T02:35:51.806Z,50.910488
2022-08-11T02:36:52.045Z,50.910511
2022-08-11T02:37:51.823Z,50.910320
2022-08-11T02:38:52.007Z,50.910507
2022-08-11T02:39:51.814Z,50.910637
2022-08-11T02:40:51.756Z,50.910469
2022-08-11T02:41:51.762Z,50.910461
2022-08-11T02:42:51.731Z,50.910469
2022-08-11T02:43:51.856Z,50.910484
2022-08-11T02:44:51.711Z,50.910549
2022-08-11T02:45:51.723Z,50.910576
2022-08-11T02:46:51.704Z,50.910511
2022-08-11T02:47:51.687Z,50.910461
2022-08-11T02:48:51.679Z,50.910641
2022-08-11T02:50:02.721Z,50.910641
2022-08-11T02:50:52.653Z,50.910572
2022-08-11T02:51:51.702Z,50.910564
2022-08-11T02:52:51.637Z,50.910660
2022-08-11T02:53:57.995Z,50.910675
2022-08-11T02:54:52.618Z,50.910717
2022-08-11T02:55:57.983Z,50.910675
2022-08-11T02:56:52.636Z,50.910641
2022-08-11T02:57:51.594Z,50.910645
2022-08-11T02:58:51.582Z,50.910725
2022-08-11T02:59:51.593Z,50.910656
2022-08-11T03:00:51.590Z,50.910557
2022-08-11T03:01:51.623Z,50.910610
2022-08-11T03:02:51.578Z,50.910671
2022-08-11T03:03:51.545Z,50.910664
2022-08-11T03:04:51.533Z,50.910686
2022-08-11T03:05:52.908Z,50.910736
2022-08-11T03:06:51.522Z,50.910801
2022-08-11T03:07:51.509Z,50.910728
2022-08-11T03:08:51.500Z,50.910675
2022-08-11T03:09:51.485Z,50.910744
2022-08-11T03:10:51.465Z,50.910732
2022-08-11T03:11:51.479Z,50.910698
2022-08-11T03:12:53.666Z,50.910759
2022-08-11T03:13:51.451Z,50.910793
2022-08-11T03:14:51.426Z,50.910583
2022-08-11T03:15:51.435Z,50.910423
2022-08-11T03:16:51.475Z,50.910553
2022-08-11T03:17:51.400Z,50.910751
2022-08-11T03:18:51.399Z,50.910721
2022-08-11T03:19:51.582Z,50.910786
2022-08-11T03:20:51.372Z,50.910774
2022-08-11T03:22:03.060Z,50.910683
2022-08-11T03:22:52.353Z,50.910767
2022-08-11T03:23:51.347Z,50.910748
2022-08-11T03:24:51.337Z,50.910664
2022-08-11T03:25:51.324Z,50.910751
2022-08-11T03:26:51.325Z,50.910736
2022-08-11T03:27:51.303Z,50.910744
2022-08-11T03:28:51.292Z,50.910664
2022-08-11T03:29:51.284Z,50.910664
2022-08-11T03:30:51.282Z,50.910679
2022-08-11T03:31:51.285Z,50.910610
2022-08-11T03:32:51.252Z,50.910564
2022-08-11T03:33:51.247Z,50.910572
2022-08-11T03:34:51.233Z,50.910671
2022-08-11T03:35:51.227Z,50.910702
2022-08-11T03:37:15.067Z,50.910683
2022-08-11T03:37:52.482Z,50.910683
2022-08-11T03:38:51.271Z,50.910671
2022-08-11T03:39:56.160Z,50.910664
2022-08-11T03:40:52.178Z,50.910740
2022-08-11T03:42:04.489Z,50.910648
2022-08-11T03:42:52.157Z,50.910736
2022-08-11T03:43:58.415Z,50.910793
2022-08-11T03:44:51.354Z,50.910809
2022-08-11T03:45:51.134Z,50.910751
2022-08-11T03:46:51.139Z,50.910721
2022-08-11T03:47:54.958Z,50.910732
2022-08-11T03:48:51.115Z,50.910816
2022-08-11T03:49:51.095Z,50.910782
2022-08-11T03:50:54.958Z,50.910828
2022-08-11T03:51:52.187Z,50.910763
2022-08-11T03:52:51.247Z,50.910671
2022-08-11T03:53:51.052Z,50.910694
2022-08-11T03:54:51.046Z,50.910625
2022-08-11T03:55:51.039Z,50.910587
2022-08-11T03:56:51.034Z,50.910603
2022-08-11T03:57:51.017Z,50.910603
2022-08-11T03:58:51.113Z,50.910648
2022-08-11T03:59:50.996Z,50.910713
2022-08-11T04:00:50.987Z,50.910740
2022-08-11T04:01:51.039Z,50.910702
2022-08-11T04:02:50.969Z,50.910671
2022-08-11T04:03:50.961Z,50.910683
2022-08-11T04:04:51.641Z,50.910675
2022-08-11T04:05:51.021Z,50.910721
2022-08-11T04:06:50.940Z,50.910709
2022-08-11T04:07:50.920Z,50.910744
2022-08-11T04:08:50.910Z,50.910736
2022-08-11T04:09:50.899Z,50.910744
2022-08-11T04:10:50.890Z,50.910786
2022-08-11T04:11:50.896Z,50.910751
2022-08-11T04:12:51.018Z,50.910782
2022-08-11T04:13:50.867Z,50.910713
2022-08-11T04:14:50.850Z,50.910671
2022-08-11T04:15:51.059Z,50.910606
2022-08-11T04:16:50.836Z,50.910606
2022-08-11T04:17:50.837Z,50.910648
2022-08-11T04:18:50.816Z,50.910629
2022-08-11T04:19:50.803Z,50.910549
2022-08-11T04:20:50.792Z,50.910637
2022-08-11T04:21:50.781Z,50.910645
2022-08-11T04:22:50.781Z,50.910641
2022-08-11T04:24:35.010Z,50.910603
2022-08-11T04:24:51.776Z,50.910740
2022-08-11T04:25:55.854Z,50.910694
2022-08-11T04:26:51.729Z,50.910690
2022-08-11T04:27:50.861Z,50.910873
2022-08-11T04:28:50.897Z,50.910709
2022-08-11T04:30:02.101Z,50.910671
2022-08-11T04:30:51.896Z,50.910782
2022-08-11T04:31:52.738Z,50.910732
2022-08-11T04:32:50.680Z,50.910801
2022-08-11T04:33:52.064Z,50.910721
2022-08-11T04:34:50.658Z,50.910679
2022-08-11T04:35:51.418Z,50.910744
2022-08-11T04:36:50.635Z,50.910732
2022-08-11T04:37:51.351Z,50.910664
2022-08-11T04:38:50.623Z,50.910671
2022-08-11T04:39:50.705Z,50.910610
2022-08-11T04:40:50.600Z,50.910652
2022-08-11T04:41:50.594Z,50.910774
2022-08-11T04:42:50.596Z,50.910603
2022-08-11T04:44:02.887Z,50.910625
2022-08-11T04:44:51.570Z,50.910698
2022-08-11T04:45:50.551Z,50.910725
2022-08-11T04:46:50.537Z,50.910706
2022-08-11T04:48:03.536Z,50.910660
2022-08-11T04:48:51.523Z,50.910648
2022-08-11T04:49:50.530Z,50.910717
2022-08-11T04:51:08.591Z,50.910736
2022-08-11T04:51:51.552Z,50.910694
2022-08-11T04:52:50.571Z,50.910717
2022-08-11T04:53:52.265Z,50.910675
2022-08-11T04:54:50.809Z,50.910778
2022-08-11T04:55:50.465Z,50.910671
2022-08-11T04:56:50.597Z,50.910492
2022-08-11T04:57:50.450Z,50.910564
2022-08-11T04:58:50.423Z,50.910610
2022-08-11T04:59:50.423Z,50.910706
2022-08-11T05:00:50.425Z,50.910610
2022-08-11T05:01:50.464Z,50.910519
2022-08-11T05:02:50.430Z,50.910709
2022-08-11T05:03:50.399Z,50.910675
2022-08-11T05:04:50.368Z,50.910671
2022-08-11T05:05:56.496Z,50.910721
2022-08-11T05:06:51.353Z,50.910732
2022-08-11T05:07:50.374Z,50.910751
2022-08-11T05:08:50.333Z,50.910706
2022-08-11T05:09:50.328Z,50.910633
2022-08-11T05:10:50.311Z,50.910625
2022-08-11T05:11:50.321Z,50.910622
2022-08-11T05:12:50.309Z,50.910618
2022-08-11T05:13:50.287Z,50.910698
2022-08-11T05:14:50.274Z,50.910740
2022-08-11T05:15:51.597Z,50.910694
2022-08-11T05:16:50.265Z,50.910725
2022-08-11T05:17:50.251Z,50.910709
2022-08-11T05:18:50.238Z,50.910648
2022-08-11T05:19:50.228Z,50.910751
2022-08-11T05:20:50.218Z,50.910690
2022-08-11T05:21:50.226Z,50.910603
2022-08-11T05:22:50.197Z,50.910679
2022-08-11T05:23:50.196Z,50.910694
2022-08-11T05:24:50.179Z,50.910641
2022-08-11T05:26:43.342Z,50.910583
2022-08-11T05:26:51.176Z,50.910618
2022-08-11T05:27:50.152Z,50.910610
2022-08-11T05:28:50.137Z,50.910652
2022-08-11T05:29:50.132Z,50.910702
2022-08-11T05:30:50.116Z,50.910587
2022-08-11T05:31:50.132Z,50.910603
2022-08-11T05:32:50.093Z,50.910648
2022-08-11T05:33:50.090Z,50.910744
2022-08-11T05:34:50.081Z,50.910660
2022-08-11T05:36:00.825Z,50.910667
2022-08-11T05:36:51.083Z,50.910675
2022-08-11T05:37:50.046Z,50.910637
2022-08-11T05:38:50.047Z,50.910713
2022-08-11T05:39:50.100Z,50.910675
2022-08-11T05:40:51.126Z,50.910618
2022-08-11T05:41:50.034Z,50.910679
2022-08-11T05:42:50.005Z,50.910706
2022-08-11T05:44:20.605Z,50.910759
2022-08-11T05:44:50.993Z,50.910702
2022-08-11T05:46:02.772Z,50.910740
2022-08-11T05:46:50.980Z,50.910645
2022-08-11T05:47:49.958Z,50.910583
2022-08-11T05:48:49.974Z,50.910549
2022-08-11T05:49:49.939Z,50.910622
2022-08-11T05:50:49.928Z,50.910782
2022-08-11T05:51:55.111Z,50.910690
2022-08-11T05:52:55.453Z,50.910648
2022-08-11T05:53:50.058Z,50.910652
2022-08-11T05:54:49.889Z,50.910679
2022-08-11T05:56:01.649Z,50.910614
2022-08-11T05:56:50.887Z,50.910603
2022-08-11T05:57:51.900Z,50.910614
2022-08-11T05:58:49.845Z,50.910625
2022-08-11T05:59:49.843Z,50.910751
2022-08-11T06:00:49.843Z,50.910767
2022-08-11T06:01:49.882Z,50.910740
2022-08-11T06:02:49.824Z,50.910652
2022-08-11T06:03:58.665Z,50.910614
2022-08-11T06:04:50.812Z,50.910660
2022-08-11T06:05:50.823Z,50.910679
2022-08-11T06:06:49.770Z,50.910572
2022-08-11T06:07:50.305Z,50.910595
2022-08-11T06:08:49.758Z,50.910625
2022-08-11T06:09:49.743Z,50.910633
2022-08-11T06:10:49.739Z,50.910580
2022-08-11T06:11:49.727Z,50.910625
2022-08-11T06:12:49.732Z,50.910725
2022-08-11T06:13:49.715Z,50.910778
2022-08-11T06:14:49.710Z,50.910686
2022-08-11T06:15:49.693Z,50.910721
2022-08-11T06:16:49.879Z,50.910686
2022-08-11T06:17:49.682Z,50.910603
2022-08-11T06:18:49.670Z,50.910652
2022-08-11T06:19:49.657Z,50.910675
2022-08-11T06:20:49.658Z,50.910755
2022-08-11T06:21:49.636Z,50.910797
2022-08-11T06:22:52.933Z,50.910656
2022-08-11T06:23:49.608Z,50.910694
2022-08-11T06:24:49.610Z,50.910679
2022-08-11T06:25:49.599Z,50.910664
2022-08-11T06:27:11.331Z,50.910656
2022-08-11T06:27:50.588Z,50.910686
2022-08-11T06:28:49.656Z,50.910683
2022-08-11T06:29:55.134Z,50.910702
2022-08-11T06:30:50.550Z,50.910728
2022-08-11T06:31:49.534Z,50.910778
2022-08-11T06:32:49.534Z,50.910725
2022-08-11T06:33:49.511Z,50.910660
2022-08-11T06:34:49.508Z,50.910698
2022-08-11T06:35:49.499Z,50.910637
2022-08-11T06:36:49.486Z,50.910686
2022-08-11T06:37:49.506Z,50.910698
2022-08-11T06:38:49.472Z,50.910793
2022-08-11T06:39:49.505Z,50.910767
2022-08-11T06:40:49.445Z,50.910786
2022-08-11T06:41:49.436Z,50.910789
2022-08-11T06:42:49.436Z,50.910763
2022-08-11T06:43:55.941Z,50.910751
2022-08-11T06:44:50.403Z,50.910786
2022-08-11T06:45:49.392Z,50.910789
2022-08-11T06:46:49.386Z,50.910774
2022-08-11T06:47:49.404Z,50.910767
2022-08-11T06:48:49.380Z,50.910759
2022-08-11T06:49:49.361Z,50.910774
2022-08-11T06:50:49.348Z,50.910770
2022-08-11T06:51:49.335Z,50.910759
2022-08-11T06:52:49.626Z,50.910812
2022-08-11T06:53:49.496Z,50.910767
2022-08-11T06:54:50.307Z,50.910793
2022-08-11T06:55:57.917Z,50.910778
2022-08-11T06:57:01.723Z,50.910744
2022-08-11T06:57:50.278Z,50.910744
2022-08-11T06:58:49.288Z,50.910740
2022-08-11T06:59:49.253Z,50.910656
2022-08-11T07:00:49.250Z,50.910725
2022-08-11T07:01:49.583Z,50.910728
2022-08-11T07:02:49.233Z,50.910702
2022-08-11T07:03:49.237Z,50.910706
2022-08-11T07:04:49.209Z,50.910664
2022-08-11T07:05:49.202Z,50.910774
2022-08-11T07:06:50.386Z,50.910797
2022-08-11T07:07:49.181Z,50.910744
2022-08-11T07:08:49.192Z,50.910721
2022-08-11T07:09:49.160Z,50.910782
2022-08-11T07:10:49.154Z,50.910748
2022-08-11T07:11:49.143Z,50.910717
2022-08-11T07:12:49.132Z,50.910709
2022-08-11T07:13:49.136Z,50.910686
2022-08-11T07:14:49.113Z,50.910736
2022-08-11T07:16:12.205Z,50.910774
2022-08-11T07:16:50.094Z,50.910782
2022-08-11T07:17:49.076Z,50.910740
2022-08-11T07:18:49.085Z,50.910667
2022-08-11T07:19:49.061Z,50.910843
2022-08-11T07:20:49.052Z,50.910736
2022-08-11T07:22:02.346Z,50.910736
2022-08-11T07:22:50.040Z,50.910702
2022-08-11T07:23:49.040Z,50.910690
2022-08-11T07:25:01.388Z,50.910702
2022-08-11T07:25:50.010Z,50.910721
2022-08-11T07:26:49.001Z,50.910770
2022-08-11T07:27:48.989Z,50.910843
2022-08-11T07:28:48.990Z,50.910851
2022-08-11T07:29:48.969Z,50.910728
2022-08-11T07:30:51.859Z,50.910690
2022-08-11T07:31:50.011Z,50.910686
2022-08-11T07:32:48.939Z,50.910782
2022-08-11T07:34:08.408Z,50.910824
2022-08-11T07:34:49.927Z,50.910801
2022-08-11T07:35:48.946Z,50.910728
2022-08-11T07:36:48.897Z,50.910667
2022-08-11T07:37:48.881Z,50.910671
2022-08-11T07:38:49.058Z,50.910736
2022-08-11T07:39:48.925Z,50.910767
2022-08-11T07:40:48.864Z,50.910786
2022-08-11T07:41:48.841Z,50.910770
2022-08-11T07:42:48.841Z,50.910828
2022-08-11T07:43:48.820Z,50.910828
2022-08-11T07:44:48.830Z,50.910740
2022-08-11T07:45:48.805Z,50.910793
2022-08-11T07:46:48.792Z,50.910591
2022-08-11T07:47:48.778Z,50.910637
2022-08-11T07:48:48.787Z,50.910759
2022-08-11T07:49:48.779Z,50.910755
2022-08-11T07:50:51.811Z,50.910709
2022-08-11T07:51:48.747Z,50.910721
2022-08-11T07:52:52.799Z,50.910709
2022-08-11T07:53:58.781Z,50.910690
2022-08-11T07:54:51.296Z,50.910725
2022-08-11T07:55:50.839Z,50.910782
2022-08-11T07:57:07.518Z,50.910694
2022-08-11T07:58:16.164Z,50.910774
2022-08-11T07:58:53.225Z,50.910725
2022-08-11T07:59:57.578Z,50.910748
2022-08-11T08:00:51.788Z,50.910816
2022-08-11T08:01:48.673Z,50.910812
2022-08-11T08:02:48.643Z,50.910797
2022-08-11T08:03:54.504Z,50.910809
2022-08-11T08:04:49.640Z,50.910805
2022-08-11T08:05:48.619Z,50.910797
2022-08-11T08:06:48.604Z,50.910805
2022-08-11T08:07:48.593Z,50.910805
2022-08-11T08:08:48.591Z,50.910789
2022-08-11T08:09:48.586Z,50.910797
2022-08-11T08:10:48.566Z,50.910797
2022-08-11T08:11:48.561Z,50.910820
2022-08-11T08:12:48.551Z,50.910789
2022-08-11T08:13:48.539Z,50.910805
2022-08-11T08:14:48.564Z,50.910809
2022-08-11T08:15:48.518Z,50.910862
2022-08-11T08:16:48.516Z,50.910835
2022-08-11T08:18:09.915Z,50.910816
2022-08-11T08:18:49.499Z,50.910805
2022-08-11T08:19:48.502Z,50.910801
2022-08-11T08:20:48.476Z,50.910725
2022-08-11T08:21:48.464Z,50.910782
2022-08-11T08:22:48.834Z,50.910740
2022-08-11T08:23:53.796Z,50.910717
2022-08-11T08:24:49.455Z,50.910721
2022-08-11T08:25:48.432Z,50.910671
2022-08-11T08:26:51.871Z,50.910671
2022-08-11T08:27:48.415Z,50.910725
2022-08-11T08:28:48.406Z,50.910793
2022-08-11T08:29:48.407Z,50.910709
2022-08-11T08:30:48.384Z,50.910683
2022-08-11T08:31:48.365Z,50.910748
2022-08-11T08:32:48.371Z,50.910793
2022-08-11T08:33:48.357Z,50.910797
2022-08-11T08:34:48.370Z,50.910725
2022-08-11T08:35:54.084Z,50.910698
2022-08-11T08:36:49.345Z,50.910732
2022-08-11T08:37:48.328Z,50.910774
2022-08-11T08:38:48.370Z,50.910801
2022-08-11T08:39:48.367Z,50.910831
2022-08-11T08:40:48.441Z,50.910847
2022-08-11T08:41:48.287Z,50.910740
2022-08-11T08:42:48.518Z,50.910835
2022-08-11T08:43:49.300Z,50.910805
2022-08-11T08:44:48.251Z,50.910835
2022-08-11T08:45:48.477Z,50.910839
2022-08-11T08:46:48.241Z,50.910797
2022-08-11T08:47:52.551Z,50.910725
2022-08-11T08:48:48.225Z,50.910778
2022-08-11T08:49:48.211Z,50.910892
2022-08-11T08:50:48.222Z,50.910980
2022-08-11T08:52:01.493Z,50.910896
2022-08-11T08:52:49.582Z,50.910809
2022-08-11T08:53:52.375Z,50.910809
2022-08-11T08:54:49.213Z,50.910801
2022-08-11T08:55:48.166Z,50.910763
2022-08-11T08:56:48.153Z,50.910812
2022-08-11T08:57:48.149Z,50.910828
2022-08-11T08:58:48.136Z,50.910782
2022-08-11T08:59:49.515Z,50.910728
2022-08-11T09:00:48.135Z,50.910786
2022-08-11T09:01:48.175Z,50.910828
2022-08-11T09:02:48.326Z,50.910755
2022-08-11T09:04:06.844Z,50.910728
2022-08-11T09:04:49.109Z,50.910736
2022-08-11T09:05:48.086Z,50.910782
2022-08-11T09:06:51.621Z,50.910759
2022-08-11T09:07:48.062Z,50.910652
2022-08-11T09:08:49.650Z,50.910645
2022-08-11T09:09:48.040Z,50.910713
2022-08-11T09:10:48.053Z,50.910786
2022-08-11T09:11:48.025Z,50.910801
2022-08-11T09:12:48.291Z,50.910812
2022-08-11T09:14:05.892Z,50.910824
2022-08-11T09:14:49.115Z,50.910812
2022-08-11T09:15:48.006Z,50.910847
2022-08-11T09:16:47.991Z,50.910786
2022-08-11T09:17:47.974Z,50.910736
2022-08-11T09:18:47.974Z,50.910725
2022-08-11T09:19:56.560Z,50.910767
2022-08-11T09:20:48.971Z,50.910751
2022-08-11T09:21:49.429Z,50.910713
2022-08-11T09:22:47.938Z,50.910782
2022-08-11T09:24:07.407Z,50.910801
2022-08-11T09:24:48.921Z,50.910770
2022-08-11T09:25:47.923Z,50.910686
2022-08-11T09:26:47.909Z,50.910770
2022-08-11T09:27:50.204Z,50.910824
2022-08-11T09:28:47.947Z,50.910915
2022-08-11T09:29:47.884Z,50.910847
2022-08-11T09:30:47.888Z,50.910904
2022-08-11T09:31:47.862Z,50.910843
2022-08-11T09:32:47.859Z,50.910915
2022-08-11T09:33:47.849Z,50.910973
2022-08-11T09:34:47.847Z,50.910770
2022-08-11T09:35:47.851Z,50.910843
2022-08-11T09:36:47.826Z,50.910847
2022-08-11T09:37:55.692Z,50.910740
2022-08-11T09:38:49.713Z,50.910770
2022-08-11T09:39:47.831Z,50.910835
2022-08-11T09:40:52.824Z,50.910748
2022-08-11T09:42:01.880Z,50.910709
2022-08-11T09:42:48.777Z,50.910702
2022-08-11T09:43:47.762Z,50.910721
2022-08-11T09:44:48.575Z,50.910767
2022-08-11T09:45:47.764Z,50.910786
2022-08-11T09:46:47.742Z,50.910717
2022-08-11T09:47:47.750Z,50.910786
2022-08-11T09:48:47.724Z,50.910770
2022-08-11T09:49:47.727Z,50.910751
2022-08-11T09:50:47.734Z,50.910751
2022-08-11T09:52:01.966Z,50.910770
2022-08-11T09:53:16.866Z,50.910725
2022-08-11T09:54:03.718Z,50.910732
2022-08-11T09:54:48.801Z,50.910763
2022-08-11T09:55:47.689Z,50.910770
2022-08-11T09:56:47.666Z,50.910717
2022-08-11T09:57:47.675Z,50.910751
2022-08-11T09:58:47.647Z,50.910778
2022-08-11T09:59:47.648Z,50.910755
2022-08-11T10:00:47.713Z,50.910751
2022-08-11T10:01:47.674Z,50.910744
2022-08-11T10:02:47.619Z,50.910763
2022-08-11T10:03:47.607Z,50.910683
2022-08-11T10:04:47.603Z,50.910656
2022-08-11T10:05:47.605Z,50.910679
2022-08-11T10:06:47.588Z,50.910686
2022-08-11T10:07:47.590Z,50.910744
2022-08-11T10:08:47.575Z,50.910744
2022-08-11T10:09:47.567Z,50.910759
2022-08-11T10:10:47.573Z,50.910679
2022-08-11T10:11:57.792Z,50.910725
2022-08-11T10:12:48.545Z,50.910740
2022-08-11T10:14:33.462Z,50.910744
2022-08-11T10:14:48.530Z,50.910709
2022-08-11T10:15:59.585Z,50.910725
2022-08-11T10:16:48.520Z,50.910698
2022-08-11T10:17:47.516Z,50.910709
2022-08-11T10:18:47.503Z,50.910686
2022-08-11T10:20:04.230Z,50.910686
2022-08-11T10:20:48.502Z,50.910671
2022-08-11T10:21:47.485Z,50.910683
2022-08-11T10:22:47.476Z,50.910675
2022-08-11T10:24:01.034Z,50.910637
2022-08-11T10:24:48.463Z,50.910629
2022-08-11T10:25:47.469Z,50.910679
2022-08-11T10:26:47.455Z,50.910740
2022-08-11T10:28:30.558Z,50.910728
2022-08-11T10:29:09.903Z,50.910744
2022-08-11T10:29:49.759Z,50.910748
2022-08-11T10:30:47.441Z,50.910755
2022-08-11T10:31:57.530Z,50.910736
2022-08-11T10:32:58.681Z,50.910690
2022-08-11T10:33:59.261Z,50.910740
2022-08-11T10:34:51.173Z,50.910736
2022-08-11T10:35:47.396Z,50.910759
2022-08-11T10:36:47.398Z,50.910717
2022-08-11T10:38:08.654Z,50.910748
2022-08-11T10:38:48.371Z,50.910713
2022-08-11T10:39:47.411Z,50.910728
2022-08-11T10:40:47.354Z,50.910671
2022-08-11T10:42:06.567Z,50.910690
2022-08-11T10:42:57.794Z,50.910706
2022-08-11T10:44:02.876Z,50.910755
2022-08-11T10:44:48.322Z,50.910725
2022-08-11T10:45:47.321Z,50.910706
2022-08-11T10:46:47.322Z,50.910694
2022-08-11T10:47:49.680Z,50.910686
2022-08-11T10:48:47.305Z,50.910694
2022-08-11T10:49:47.291Z,50.910683
2022-08-11T10:50:47.281Z,50.910698
2022-08-11T10:51:50.973Z,50.910706
2022-08-11T10:52:47.269Z,50.910759
2022-08-11T10:53:47.261Z,50.910702
2022-08-11T10:54:47.260Z,50.910576
2022-08-11T10:55:47.299Z,50.910599
2022-08-11T10:56:47.255Z,50.910564
2022-08-11T10:58:04.279Z,50.910667
2022-08-11T10:58:48.231Z,50.910709
2022-08-11T10:59:47.218Z,50.910660
2022-08-11T11:00:47.245Z,50.910656
2022-08-11T11:01:47.220Z,50.910633
2022-08-11T11:03:07.108Z,50.910660
2022-08-11T11:03:48.197Z,50.910633
2022-08-11T11:04:50.775Z,50.910717
2022-08-11T11:06:27.502Z,50.910709
2022-08-11T11:06:48.178Z,50.910709
2022-08-11T11:07:47.168Z,50.910667
2022-08-11T11:09:47.153Z,50.910641
2022-08-11T11:10:47.141Z,50.910717
2022-08-11T11:11:47.157Z,50.910683
2022-08-11T11:12:47.124Z,50.910728
2022-08-11T11:13:53.383Z,50.910717
2022-08-11T11:14:50.801Z,50.910728
2022-08-11T11:15:47.163Z,50.910740
2022-08-11T11:16:47.112Z,50.910786
2022-08-11T11:17:47.088Z,50.910770
2022-08-11T11:18:47.076Z,50.910820
2022-08-11T11:19:48.074Z,50.910755
2022-08-11T11:20:47.688Z,50.910725
2022-08-11T11:21:47.076Z,50.910748
2022-08-11T11:22:47.052Z,50.910667
2022-08-11T11:23:47.046Z,50.910690
2022-08-11T11:24:47.040Z,50.910748
2022-08-11T11:25:47.034Z,50.910690